Kalamazoo, Michigan
Current Conditions -  °F | °C
As of 1:00 PM on Monday 24 Nov 2014 (Local Time) from KAZO Reporting Station
Light Rain Light Rain  
Wind Chill: -1°   Ceiling: 1100
Heat Index:   Visibility: 9mi
Dew Point:   Wind: 30mph
Humidity: 86%   Direction: 220°SW
Pressure: 29.23"   Gusts: 43mph
Location:  42.29°N, 85.6°W
Report Text: KAZO 241800Z 22026G37KT 9SM -RA FEW008 OVC011 05/03 A2923 RMK AO2 PK WND 22037/1800 P0000 T00500028
Loading
Personal Weather Stations






























Interactive Weather Map New forecast layout! Learn more

10-Day Weather Forecast

Advertisements
Track Severe Weather on mobile